createdAt,value
2023-03-27T00:00:13.182Z,7.46
2023-03-27T00:03:01.673Z,7.35
2023-03-27T00:05:31.309Z,7.32
2023-03-27T00:08:01.526Z,7.25
2023-03-27T00:10:29.674Z,7.20
2023-03-27T00:12:57.983Z,7.17
2023-03-27T00:15:26.053Z,7.22
2023-03-27T00:17:55.157Z,7.23
2023-03-27T00:20:24.093Z,7.26
2023-03-27T00:22:55.592Z,7.22
2023-03-27T00:25:24.897Z,7.27
2023-03-27T00:27:53.990Z,7.25
2023-03-27T00:30:21.965Z,7.06
2023-03-27T00:32:50.347Z,6.91
2023-03-27T00:35:18.480Z,6.83
2023-03-27T00:37:47.125Z,6.81
2023-03-27T00:40:17.654Z,6.75
2023-03-27T00:42:47.094Z,6.73
2023-03-27T00:45:18.281Z,6.71
2023-03-27T00:47:48.143Z,6.62
2023-03-27T00:50:19.744Z,6.68
2023-03-27T00:52:51.496Z,6.63
2023-03-27T00:55:22.341Z,6.57
2023-03-27T00:57:53.293Z,6.54
2023-03-27T01:00:21.938Z,6.54
2023-03-27T01:02:51.307Z,6.46
2023-03-27T01:05:20.760Z,6.46
2023-03-27T01:08:00.532Z,6.45
2023-03-27T01:10:37.121Z,6.38
2023-03-27T01:13:11.805Z,6.35
2023-03-27T01:15:45.810Z,6.38
2023-03-27T01:18:24.405Z,6.40
2023-03-27T01:21:24.716Z,6.44
2023-03-27T01:24:39.515Z,6.43
2023-03-27T01:27:11.572Z,6.40
2023-03-27T01:29:48.420Z,6.40
2023-03-27T01:32:36.996Z,6.35
2023-03-27T01:35:32.611Z,6.37
2023-03-27T01:38:19.238Z,6.36
2023-03-27T01:40:51.710Z,6.34
2023-03-27T01:43:24.353Z,6.31
2023-03-27T01:45:56.209Z,6.32
2023-03-27T01:48:27.424Z,6.30
2023-03-27T01:50:58.655Z,6.33
2023-03-27T01:53:29.902Z,6.31
2023-03-27T01:56:02.127Z,6.29
2023-03-27T01:58:33.115Z,6.29
2023-03-27T02:01:02.946Z,6.26
2023-03-27T02:03:34.779Z,6.25
2023-03-27T02:06:06.521Z,6.17
2023-03-27T02:08:41.228Z,6.16
2023-03-27T02:11:17.982Z,6.10
2023-03-27T02:13:49.766Z,5.94
2023-03-27T02:16:21.503Z,5.85
2023-03-27T02:18:54.294Z,5.85
2023-03-27T02:21:23.527Z,5.83
2023-03-27T02:23:52.933Z,5.80
2023-03-27T02:26:22.712Z,5.67
2023-03-27T02:29:00.276Z,5.64
2023-03-27T02:31:37.260Z,5.58
2023-03-27T02:34:38.208Z,5.51
2023-03-27T02:37:12.039Z,5.42
2023-03-27T02:40:10.002Z,5.34
2023-03-27T02:42:46.477Z,5.27
2023-03-27T02:45:18.545Z,5.29
2023-03-27T02:47:48.975Z,5.22
2023-03-27T02:50:20.359Z,5.22
2023-03-27T02:52:52.220Z,4.98
2023-03-27T02:55:23.960Z,5.01
2023-03-27T02:57:59.453Z,4.96
2023-03-27T03:00:41.896Z,4.85
2023-03-27T03:03:34.898Z,4.80
2023-03-27T03:06:11.022Z,4.69
2023-03-27T03:08:39.574Z,4.54
2023-03-27T03:11:11.978Z,4.44
2023-03-27T03:13:42.321Z,4.41
2023-03-27T03:16:11.348Z,4.38
2023-03-27T03:18:41.293Z,4.32
2023-03-27T03:21:09.501Z,4.22
2023-03-27T03:23:39.112Z,4.16
2023-03-27T03:26:08.370Z,4.14
2023-03-27T03:29:00.868Z,4.12
2023-03-27T03:31:42.968Z,4.09
2023-03-27T03:34:11.825Z,3.97
2023-03-27T03:36:41.893Z,4.01
2023-03-27T03:39:11.310Z,3.98
2023-03-27T03:41:39.467Z,3.93
2023-03-27T03:44:09.938Z,3.89
2023-03-27T03:46:39.081Z,3.87
2023-03-27T03:49:07.902Z,3.86
2023-03-27T03:51:36.542Z,3.84
2023-03-27T03:54:06.639Z,3.79
2023-03-27T03:56:34.884Z,3.79
2023-03-27T03:59:03.184Z,3.67
2023-03-27T04:01:34.458Z,3.71
2023-03-27T04:04:05.725Z,3.71
2023-03-27T04:06:58.123Z,3.68
2023-03-27T04:09:30.637Z,3.67
2023-03-27T04:12:10.099Z,3.66
2023-03-27T04:15:11.098Z,3.58
2023-03-27T04:18:00.971Z,3.58
2023-03-27T04:20:29.627Z,3.56
2023-03-27T04:23:02.489Z,3.55
2023-03-27T04:25:32.137Z,3.53
2023-03-27T04:28:02.149Z,3.55
2023-03-27T04:30:36.863Z,3.52
2023-03-27T04:33:24.744Z,3.48
2023-03-27T04:36:14.644Z,3.41
2023-03-27T04:39:05.680Z,3.50
2023-03-27T04:41:34.112Z,3.50
2023-03-27T04:44:02.393Z,3.48
2023-03-27T04:46:32.870Z,3.42
2023-03-27T04:49:09.208Z,3.48
2023-03-27T04:51:47.906Z,3.47
2023-03-27T04:54:16.171Z,3.48
2023-03-27T04:56:46.637Z,3.45
2023-03-27T04:59:15.573Z,3.41
2023-03-27T05:01:44.646Z,3.41
2023-03-27T05:04:34.383Z,3.41
2023-03-27T05:07:12.105Z,3.42
2023-03-27T05:09:40.271Z,3.41
2023-03-27T05:12:10.640Z,3.42
2023-03-27T05:14:48.476Z,3.42
2023-03-27T05:17:32.864Z,3.42
2023-03-27T05:20:04.225Z,3.37
2023-03-27T05:22:34.615Z,3.36
2023-03-27T05:25:12.017Z,3.15
2023-03-27T05:27:45.535Z,3.33
2023-03-27T05:30:15.907Z,3.41
2023-03-27T05:32:48.827Z,3.43
2023-03-27T05:35:28.269Z,3.51
2023-03-27T05:37:59.020Z,3.54
2023-03-27T05:41:00.589Z,3.52
2023-03-27T05:43:29.292Z,3.40
2023-03-27T05:45:57.337Z,3.47
2023-03-27T05:48:26.960Z,3.45
2023-03-27T05:51:01.897Z,3.39
2023-03-27T05:53:30.253Z,3.28
2023-03-27T05:56:21.269Z,3.15
2023-03-27T05:58:59.264Z,3.10
2023-03-27T06:01:28.850Z,3.11
2023-03-27T06:04:00.254Z,3.11
2023-03-27T06:06:34.565Z,3.31
2023-03-27T06:09:05.239Z,3.35
2023-03-27T06:11:35.250Z,3.40
2023-03-27T06:14:04.080Z,3.54
2023-03-27T06:16:58.049Z,3.49
2023-03-27T06:19:44.588Z,3.74
2023-03-27T06:22:14.170Z,3.81
2023-03-27T06:24:43.118Z,3.91
2023-03-27T06:27:14.152Z,4.02
2023-03-27T06:29:42.713Z,4.15
2023-03-27T06:32:11.754Z,3.98
2023-03-27T06:34:45.334Z,3.97
2023-03-27T06:37:37.021Z,4.05
2023-03-27T06:40:10.269Z,4.14
2023-03-27T06:42:40.754Z,4.07
2023-03-27T06:45:38.608Z,4.34
2023-03-27T06:48:26.653Z,4.41
2023-03-27T06:50:59.010Z,4.53
2023-03-27T06:53:31.178Z,4.53
2023-03-27T06:56:02.992Z,4.50
2023-03-27T06:58:47.030Z,4.32
2023-03-27T07:01:16.006Z,4.40
2023-03-27T07:04:06.615Z,4.61
2023-03-27T07:07:04.291Z,4.66
2023-03-27T07:09:40.076Z,4.55
2023-03-27T07:12:09.934Z,4.57
2023-03-27T07:14:39.590Z,4.75
2023-03-27T07:17:09.514Z,4.81
2023-03-27T07:19:55.875Z,4.78
2023-03-27T07:22:28.720Z,4.79
2023-03-27T07:24:59.936Z,4.75
2023-03-27T07:27:38.699Z,4.87
2023-03-27T07:30:08.657Z,5.02
2023-03-27T07:32:38.101Z,5.08
2023-03-27T07:35:08.908Z,5.14
2023-03-27T07:37:38.389Z,5.20
2023-03-27T07:40:37.293Z,5.18
2023-03-27T07:43:41.017Z,5.21
2023-03-27T07:46:09.843Z,5.12
2023-03-27T07:48:38.434Z,5.04
2023-03-27T07:51:13.949Z,4.98
2023-03-27T07:53:43.591Z,4.98
2023-03-27T07:56:24.552Z,5.06
2023-03-27T07:59:11.594Z,5.07
2023-03-27T08:01:41.441Z,5.03
2023-03-27T08:04:10.255Z,5.10
2023-03-27T08:06:41.138Z,5.14
2023-03-27T08:09:14.185Z,5.18
2023-03-27T08:11:44.222Z,5.23
2023-03-27T08:14:12.977Z,5.16
2023-03-27T08:16:41.172Z,5.26
2023-03-27T08:19:11.383Z,5.30
2023-03-27T08:21:44.238Z,5.37
2023-03-27T08:24:12.607Z,5.37
2023-03-27T08:27:07.138Z,5.53
2023-03-27T08:29:40.076Z,5.58
2023-03-27T08:32:10.517Z,5.71
2023-03-27T08:34:42.356Z,5.87
2023-03-27T08:37:10.775Z,5.94
2023-03-27T08:39:49.576Z,5.96
2023-03-27T08:42:23.060Z,6.02
2023-03-27T08:44:54.866Z,6.02
2023-03-27T08:47:39.107Z,6.12
2023-03-27T08:50:22.528Z,6.16
2023-03-27T08:52:54.071Z,6.19
2023-03-27T08:55:35.842Z,6.17
2023-03-27T08:58:23.068Z,6.24
2023-03-27T09:01:02.240Z,6.35
2023-03-27T09:03:35.186Z,6.37
2023-03-27T09:06:08.289Z,6.34
2023-03-27T09:08:44.754Z,6.34
2023-03-27T09:11:23.131Z,6.33
2023-03-27T09:13:58.915Z,6.32
2023-03-27T09:16:35.595Z,6.46
2023-03-27T09:19:09.486Z,6.57
2023-03-27T09:21:42.086Z,6.63
2023-03-27T09:24:18.423Z,6.98
2023-03-27T09:27:17.574Z,7.06
2023-03-27T09:30:05.440Z,7.17
2023-03-27T09:32:47.616Z,7.19
2023-03-27T09:35:16.477Z,7.10
2023-03-27T09:37:44.999Z,7.09
2023-03-27T09:40:20.893Z,7.15
2023-03-27T09:42:49.542Z,7.25
2023-03-27T09:45:19.086Z,7.30
2023-03-27T09:48:05.698Z,7.34
2023-03-27T09:50:44.647Z,7.49
2023-03-27T09:53:27.956Z,7.47
2023-03-27T09:56:06.210Z,7.21
2023-03-27T09:58:40.733Z,7.23
2023-03-27T10:01:16.655Z,7.26
2023-03-27T10:03:52.465Z,7.24
2023-03-27T10:06:32.178Z,7.29
2023-03-27T10:09:14.690Z,7.36
2023-03-27T10:11:43.440Z,7.47
2023-03-27T10:14:26.081Z,7.51
2023-03-27T10:16:56.530Z,7.61
2023-03-27T10:19:28.420Z,7.59
2023-03-27T10:21:57.425Z,7.60
2023-03-27T10:24:34.108Z,7.61
2023-03-27T10:27:21.877Z,7.61
2023-03-27T10:30:30.380Z,7.63
2023-03-27T10:33:14.087Z,7.34
2023-03-27T10:35:53.832Z,7.55
2023-03-27T10:38:28.811Z,7.53
2023-03-27T10:41:29.084Z,7.73
2023-03-27T10:44:08.579Z,7.78
2023-03-27T10:46:39.984Z,8.03
2023-03-27T10:49:24.336Z,8.07
2023-03-27T10:51:53.689Z,8.16
2023-03-27T10:54:35.508Z,8.35
2023-03-27T10:57:07.261Z,8.39
2023-03-27T10:59:42.348Z,8.37
2023-03-27T11:02:28.463Z,8.76
2023-03-27T11:05:02.199Z,9.00
2023-03-27T11:07:34.129Z,9.06
2023-03-27T11:10:11.884Z,9.03
2023-03-27T11:12:42.058Z,8.88
2023-03-27T11:15:15.392Z,8.73
2023-03-27T11:17:47.586Z,8.56
2023-03-27T11:20:35.388Z,8.35
2023-03-27T11:23:29.936Z,8.09
2023-03-27T11:26:34.748Z,7.93
2023-03-27T11:29:09.381Z,7.52
2023-03-27T11:31:48.249Z,7.08
2023-03-27T11:34:33.420Z,6.95
2023-03-27T11:37:25.629Z,6.90
2023-03-27T11:39:58.539Z,7.02
2023-03-27T11:42:29.136Z,7.15
2023-03-27T11:44:58.738Z,7.41
2023-03-27T11:47:58.479Z,7.73
2023-03-27T11:50:37.922Z,8.06
2023-03-27T11:53:35.859Z,8.43
2023-03-27T11:56:33.492Z,8.78
2023-03-27T11:59:30.977Z,8.99
2023-03-27T12:02:15.871Z,9.01
2023-03-27T12:04:48.427Z,9.21
2023-03-27T12:07:37.113Z,9.36
2023-03-27T12:10:27.441Z,9.48
2023-03-27T12:13:55.024Z,9.58
2023-03-27T12:16:48.984Z,9.79
2023-03-27T12:19:36.269Z,9.92
2023-03-27T12:22:34.950Z,9.94
2023-03-27T12:25:21.860Z,9.98
2023-03-27T12:28:40.142Z,10.07
2023-03-27T12:31:29.461Z,10.00
2023-03-27T12:34:02.079Z,10.01
2023-03-27T12:36:34.730Z,9.78
2023-03-27T12:39:04.965Z,9.98
2023-03-27T12:41:39.124Z,10.21
2023-03-27T12:44:19.500Z,10.36
2023-03-27T12:47:08.473Z,10.83
2023-03-27T12:49:47.717Z,11.07
2023-03-27T12:52:28.645Z,10.79
2023-03-27T12:55:09.236Z,10.37
2023-03-27T12:58:03.539Z,9.79
2023-03-27T13:01:00.210Z,9.09
2023-03-27T13:03:51.183Z,8.94
2023-03-27T13:06:30.112Z,8.47
2023-03-27T13:09:18.971Z,8.52
2023-03-27T13:12:19.837Z,8.95
2023-03-27T13:15:15.850Z,9.90
2023-03-27T13:17:54.389Z,10.90
2023-03-27T13:20:30.427Z,11.55
2023-03-27T13:23:22.174Z,12.25
2023-03-27T13:26:14.030Z,12.82
2023-03-27T13:28:48.384Z,13.10
2023-03-27T13:31:49.563Z,13.70
2023-03-27T13:34:37.164Z,14.62
2023-03-27T13:37:48.131Z,15.79
2023-03-27T13:40:27.177Z,16.09
2023-03-27T13:43:15.534Z,16.49
2023-03-27T13:45:47.075Z,16.62
2023-03-27T13:49:06.177Z,16.40
2023-03-27T13:51:52.594Z,16.40
2023-03-27T13:54:48.810Z,15.62
2023-03-27T13:57:42.522Z,14.48
2023-03-27T14:00:37.627Z,13.54
2023-03-27T14:03:45.230Z,12.48
2023-03-27T14:07:00.730Z,11.80
2023-03-27T14:09:41.868Z,11.33
2023-03-27T14:12:28.106Z,10.78
2023-03-27T14:15:37.666Z,10.56
2023-03-27T14:18:44.884Z,10.24
2023-03-27T14:21:24.506Z,10.03
2023-03-27T14:24:05.378Z,9.80
2023-03-27T14:26:42.553Z,9.68
2023-03-27T14:29:15.349Z,9.69
2023-03-27T14:31:47.695Z,10.90
2023-03-27T14:34:24.856Z,12.96
2023-03-27T14:37:28.811Z,15.17
2023-03-27T14:40:00.990Z,15.56
2023-03-27T14:42:49.080Z,14.94
2023-03-27T14:45:22.064Z,13.99
2023-03-27T14:47:53.999Z,15.15
2023-03-27T14:50:23.584Z,15.13
2023-03-27T14:52:53.618Z,15.72
2023-03-27T14:55:30.766Z,16.72
2023-03-27T14:58:26.363Z,18.49
2023-03-27T15:01:00.514Z,19.94
2023-03-27T15:03:35.304Z,20.86
2023-03-27T15:06:06.293Z,21.48
2023-03-27T15:08:46.597Z,21.72
2023-03-27T15:11:38.218Z,20.61
2023-03-27T15:14:18.281Z,19.35
2023-03-27T15:16:49.813Z,16.80
2023-03-27T15:19:21.718Z,15.18
2023-03-27T15:21:56.561Z,14.61
2023-03-27T15:24:32.779Z,13.19
2023-03-27T15:27:01.716Z,13.26
2023-03-27T15:29:40.682Z,12.89
2023-03-27T15:32:11.912Z,12.84
2023-03-27T15:34:46.002Z,12.44
2023-03-27T15:37:18.747Z,12.45
2023-03-27T15:40:02.262Z,12.23
2023-03-27T15:42:45.739Z,12.80
2023-03-27T15:45:17.207Z,14.77
2023-03-27T15:47:46.441Z,16.39
2023-03-27T15:50:19.079Z,17.60
2023-03-27T15:52:51.536Z,18.09
2023-03-27T15:55:39.578Z,18.67
2023-03-27T15:58:16.280Z,19.18
2023-03-27T16:00:50.734Z,19.23
2023-03-27T16:03:22.619Z,19.65
2023-03-27T16:05:52.342Z,18.63
2023-03-27T16:08:32.474Z,17.37
2023-03-27T16:11:01.461Z,16.11
2023-03-27T16:13:35.317Z,15.17
2023-03-27T16:16:06.495Z,14.75
2023-03-27T16:18:36.024Z,15.08
2023-03-27T16:21:09.157Z,14.31
2023-03-27T16:23:38.286Z,13.74
2023-03-27T16:26:07.926Z,13.21
2023-03-27T16:28:36.700Z,13.38
2023-03-27T16:31:13.934Z,14.26
2023-03-27T16:33:45.124Z,14.92
2023-03-27T16:36:13.857Z,15.67
2023-03-27T16:38:43.661Z,16.70
2023-03-27T16:41:14.186Z,16.39
2023-03-27T16:43:42.833Z,15.67
2023-03-27T16:46:16.848Z,14.98
2023-03-27T16:48:45.627Z,14.23
2023-03-27T16:51:13.642Z,13.70
2023-03-27T16:53:41.977Z,13.35
2023-03-27T16:56:11.380Z,13.00
2023-03-27T16:58:39.976Z,12.44
2023-03-27T17:01:09.039Z,11.92
2023-03-27T17:03:38.816Z,11.60
2023-03-27T17:06:09.132Z,11.35
2023-03-27T17:08:38.066Z,11.08
2023-03-27T17:11:08.703Z,11.01
2023-03-27T17:13:37.378Z,10.75
2023-03-27T17:16:06.482Z,10.53
2023-03-27T17:18:36.380Z,10.38
2023-03-27T17:21:06.238Z,10.15
2023-03-27T17:23:34.646Z,10.04
2023-03-27T17:26:04.047Z,9.94
2023-03-27T17:28:32.558Z,9.71
2023-03-27T17:31:05.327Z,9.53
2023-03-27T17:33:34.271Z,9.43
2023-03-27T17:36:10.032Z,9.20
2023-03-27T17:38:39.377Z,9.08
2023-03-27T17:41:08.319Z,8.99
2023-03-27T17:43:36.767Z,8.90
2023-03-27T17:46:05.318Z,8.84
2023-03-27T17:48:33.938Z,8.77
2023-03-27T17:51:08.863Z,8.68
2023-03-27T17:53:39.758Z,8.59
2023-03-27T17:56:09.071Z,8.46
2023-03-27T17:58:37.936Z,8.36
2023-03-27T18:01:15.692Z,8.22
2023-03-27T18:03:44.310Z,7.99
2023-03-27T18:06:12.696Z,7.81
2023-03-27T18:08:42.414Z,7.73
2023-03-27T18:11:11.528Z,7.58
2023-03-27T18:13:40.040Z,7.43
2023-03-27T18:16:10.466Z,7.37
2023-03-27T18:18:39.872Z,7.31
2023-03-27T18:21:09.353Z,7.27
2023-03-27T18:23:46.105Z,7.29
2023-03-27T18:26:16.828Z,7.29
2023-03-27T18:28:45.345Z,7.28
2023-03-27T18:31:13.768Z,7.35
2023-03-27T18:33:42.044Z,7.34
2023-03-27T18:36:11.912Z,7.18
2023-03-27T18:38:41.693Z,7.25
2023-03-27T18:41:10.435Z,7.22
2023-03-27T18:43:40.062Z,7.13
2023-03-27T18:46:08.688Z,7.05
2023-03-27T18:48:37.319Z,7.01
2023-03-27T18:51:06.666Z,6.84
2023-03-27T18:53:35.141Z,6.82
2023-03-27T18:56:03.483Z,6.75
2023-03-27T18:58:31.898Z,6.70
2023-03-27T19:01:01.793Z,6.51
2023-03-27T19:03:34.849Z,6.56
2023-03-27T19:06:05.615Z,6.43
2023-03-27T19:08:34.360Z,6.45
2023-03-27T19:11:02.655Z,6.38
2023-03-27T19:14:06.110Z,6.32
2023-03-27T19:16:39.666Z,6.34
2023-03-27T19:19:36.834Z,6.25
2023-03-27T19:22:14.326Z,6.19
2023-03-27T19:24:46.744Z,6.16
2023-03-27T19:27:23.942Z,6.06
2023-03-27T19:29:53.133Z,6.03
2023-03-27T19:32:24.058Z,5.94
2023-03-27T19:34:52.297Z,5.86
2023-03-27T19:37:20.584Z,5.79
2023-03-27T19:39:48.713Z,5.73
2023-03-27T19:42:17.296Z,5.77
2023-03-27T19:44:45.301Z,5.71
2023-03-27T19:47:13.891Z,5.77
2023-03-27T19:49:43.513Z,5.76
2023-03-27T19:52:19.692Z,5.64
2023-03-27T19:54:47.907Z,5.63
2023-03-27T19:57:16.339Z,5.58
2023-03-27T19:59:44.415Z,5.67
2023-03-27T20:02:12.980Z,5.66
2023-03-27T20:04:41.204Z,5.62
2023-03-27T20:07:11.061Z,5.56
2023-03-27T20:09:39.565Z,5.58
2023-03-27T20:12:08.092Z,5.57
2023-03-27T20:14:36.209Z,5.44
2023-03-27T20:17:07.984Z,5.53
2023-03-27T20:19:46.116Z,5.40
2023-03-27T20:22:18.385Z,5.51
2023-03-27T20:24:46.485Z,5.34
2023-03-27T20:27:14.831Z,5.30
2023-03-27T20:29:42.908Z,5.38
2023-03-27T20:32:11.202Z,5.50
2023-03-27T20:34:39.851Z,5.37
2023-03-27T20:37:12.022Z,5.28
2023-03-27T20:39:57.092Z,5.23
2023-03-27T20:42:26.500Z,5.26
2023-03-27T20:44:58.032Z,5.39
2023-03-27T20:47:26.512Z,5.30
2023-03-27T20:49:58.715Z,5.32
2023-03-27T20:52:27.051Z,5.50
2023-03-27T20:54:56.904Z,5.56
2023-03-27T20:57:25.274Z,5.60
2023-03-27T20:59:54.218Z,5.43
2023-03-27T21:02:22.821Z,5.40
2023-03-27T21:04:51.145Z,5.60
2023-03-27T21:07:19.588Z,5.62
2023-03-27T21:09:47.886Z,5.63
2023-03-27T21:12:17.599Z,5.59
2023-03-27T21:14:45.650Z,5.52
2023-03-27T21:17:14.064Z,5.30
2023-03-27T21:19:42.195Z,5.16
2023-03-27T21:22:10.615Z,5.03
2023-03-27T21:24:40.683Z,4.94
2023-03-27T21:27:08.976Z,5.18
2023-03-27T21:29:38.579Z,5.12
2023-03-27T21:32:07.751Z,4.90
2023-03-27T21:34:36.101Z,4.83
2023-03-27T21:37:04.480Z,4.89
2023-03-27T21:39:32.669Z,4.91
2023-03-27T21:42:01.025Z,4.98
2023-03-27T21:44:29.098Z,5.08
2023-03-27T21:46:58.737Z,5.17
2023-03-27T21:49:26.947Z,4.95
2023-03-27T21:51:55.266Z,5.03
2023-03-27T21:54:23.418Z,4.91
2023-03-27T21:56:51.691Z,5.03
2023-03-27T21:59:19.863Z,5.02
2023-03-27T22:01:48.324Z,4.87
2023-03-27T22:04:18.883Z,5.23
2023-03-27T22:06:48.905Z,5.28
2023-03-27T22:09:17.928Z,5.34
2023-03-27T22:11:46.701Z,5.19
2023-03-27T22:14:14.857Z,5.34
2023-03-27T22:16:43.365Z,5.22
2023-03-27T22:19:11.860Z,5.15
2023-03-27T22:21:41.564Z,4.98
2023-03-27T22:24:09.730Z,5.01
2023-03-27T22:26:39.726Z,4.99
2023-03-27T22:29:09.047Z,4.85
2023-03-27T22:31:37.829Z,4.94
2023-03-27T22:34:06.650Z,4.87
2023-03-27T22:36:35.225Z,4.85
2023-03-27T22:39:05.486Z,4.91
2023-03-27T22:41:33.780Z,4.71
2023-03-27T22:44:02.206Z,4.77
2023-03-27T22:46:30.528Z,4.86
2023-03-27T22:48:59.562Z,4.51
2023-03-27T22:51:29.344Z,4.32
2023-03-27T22:53:57.503Z,4.23
2023-03-27T22:56:27.185Z,4.15
2023-03-27T22:58:55.533Z,4.06
2023-03-27T23:01:23.819Z,3.89
2023-03-27T23:03:52.019Z,3.70
2023-03-27T23:06:21.902Z,3.70
2023-03-27T23:08:50.792Z,3.67
2023-03-27T23:11:19.618Z,3.69
2023-03-27T23:13:49.110Z,3.67
2023-03-27T23:16:17.382Z,3.72
2023-03-27T23:18:45.478Z,3.99
2023-03-27T23:21:16.558Z,3.74
2023-03-27T23:23:45.328Z,3.67
2023-03-27T23:26:13.686Z,3.59
2023-03-27T23:28:42.719Z,3.59
2023-03-27T23:31:13.814Z,3.61
2023-03-27T23:33:43.624Z,3.61
2023-03-27T23:36:13.680Z,3.47
2023-03-27T23:38:42.396Z,3.59
2023-03-27T23:41:11.914Z,3.56
2023-03-27T23:43:39.878Z,3.68
2023-03-27T23:46:10.641Z,3.66
2023-03-27T23:48:41.760Z,3.60
2023-03-27T23:51:10.995Z,3.56
2023-03-27T23:53:39.048Z,3.58
2023-03-27T23:56:08.090Z,3.47
2023-03-27T23:58:37.085Z,3.50
